This is the latest recevied weather packets stored in our database for station/object SQ8SW-4. If no packets are shown the sender has not sent any weather packets the latest 10 day(s).
| Time | Temp. | Humidity | Pressure | Rain* | Wind** | Luminosity | Snow |
|---|---|---|---|---|---|---|---|
| 1777297206 | 15° C | 27% | 992 hPa | - | - | - | - |
| 1777296304 | 15° C | 27% | 992 hPa | - | - | - | - |
| 1777295401 | 15° C | 28% | 992 hPa | - | - | - | - |
| 1777294499 | 15° C | 28% | 992 hPa | - | - | - | - |
| 1777293597 | 15° C | 28% | 992 hPa | - | - | - | - |
| 1777292695 | 14.44° C | 29% | 992 hPa | - | - | - | - |
| 1777291792 | 14.44° C | 30% | 992 hPa | - | - | - | - |
| 1777290890 | 14.44° C | 30% | 993 hPa | - | - | - | - |
| 1777289988 | 14.44° C | 30% | 993 hPa | - | - | - | - |
| 1777289086 | 13.89° C | 28% | 993 hPa | - | - | - | - |
| 1777288184 | 13.89° C | 28% | 993 hPa | - | - | - | - |
| 1777287281 | 13.33° C | 29% | 993 hPa | - | - | - | - |
| 1777286379 | 13.33° C | 30% | 993 hPa | - | - | - | - |
| 1777285477 | 13.33° C | 29% | 993 hPa | - | - | - | - |
| 1777284575 | 12.78° C | 31% | 994 hPa | - | - | - | - |
| 1777283672 | 12.78° C | 31% | 994 hPa | - | - | - | - |
| 1777282770 | 12.22° C | 30% | 994 hPa | - | - | - | - |
| 1777281868 | 12.22° C | 31% | 994 hPa | - | - | - | - |
| 1777280966 | 12.22° C | 32% | 994 hPa | - | - | - | - |
| 1777280064 | 11.67° C | 32% | 994 hPa | - | - | - | - |
| 1777279161 | 11.67° C | 32% | 994 hPa | - | - | - | - |
| 1777278259 | 11.11° C | 37% | 995 hPa | - | - | - | - |
| 1777277357 | 10.56° C | 41% | 995 hPa | - | - | - | - |
| 1777276455 | 9.44° C | 44% | 995 hPa | - | - | - | - |
| 1777275552 | 8.33° C | 48% | 995 hPa | - | - | - | - |
* Rain since midnight (hover to see other rain measurements)
** Current wind speed in m/s (hover to see current wind gust speed)